createdAt,value
2023-01-25T00:00:53.900Z,17.23
2023-01-25T00:03:20.228Z,17.80
2023-01-25T00:05:46.535Z,17.17
2023-01-25T00:08:12.756Z,17.15
2023-01-25T00:10:38.983Z,17.15
2023-01-25T00:13:05.190Z,16.17
2023-01-25T00:15:31.389Z,16.38
2023-01-25T00:17:57.589Z,17.10
2023-01-25T00:20:23.876Z,16.58
2023-01-25T00:22:50.124Z,17.92
2023-01-25T00:25:16.365Z,16.20
2023-01-25T00:27:42.604Z,17.77
2023-01-25T00:30:09.075Z,18.17
2023-01-25T00:32:47.781Z,18.17
2023-01-25T00:35:14.116Z,16.38
2023-01-25T00:37:42.475Z,16.58
2023-01-25T00:40:10.502Z,16.95
2023-01-25T00:42:36.745Z,17.42
2023-01-25T00:45:02.969Z,16.83
2023-01-25T00:47:29.166Z,16.10
2023-01-25T00:49:55.436Z,15.73
2023-01-25T00:52:22.932Z,17.13
2023-01-25T00:54:49.309Z,15.70
2023-01-25T00:57:15.516Z,17.08
2023-01-25T00:59:44.421Z,16.88
2023-01-25T01:02:11.770Z,16.95
2023-01-25T01:04:38.171Z,17.50
2023-01-25T01:07:04.407Z,16.25
2023-01-25T01:09:30.675Z,16.33
2023-01-25T01:11:56.869Z,16.05
2023-01-25T01:14:23.780Z,17.10
2023-01-25T01:16:50.050Z,15.70
2023-01-25T01:19:16.316Z,16.88
2023-01-25T01:21:42.680Z,16.15
2023-01-25T01:24:09.549Z,16.33
2023-01-25T01:26:35.772Z,16.35
2023-01-25T01:29:01.963Z,16.23
2023-01-25T01:31:28.241Z,15.23
2023-01-25T01:33:55.778Z,15.98
2023-01-25T01:36:22.758Z,16.75
2023-01-25T01:38:49.021Z,15.65
2023-01-25T01:41:15.770Z,16.25
2023-01-25T01:43:42.512Z,15.57
2023-01-25T01:46:08.704Z,15.93
2023-01-25T01:48:41.064Z,15.77
2023-01-25T01:51:19.587Z,15.88
2023-01-25T01:53:51.907Z,15.15
2023-01-25T01:56:20.944Z,14.68
2023-01-25T01:58:48.119Z,15.93
2023-01-25T02:01:15.135Z,14.77
2023-01-25T02:03:41.557Z,15.70
2023-01-25T02:06:16.403Z,15.43
2023-01-25T02:08:43.905Z,15.43
2023-01-25T02:11:10.866Z,15.10
2023-01-25T02:13:38.021Z,15.65
2023-01-25T02:16:04.702Z,15.38
2023-01-25T02:18:31.210Z,16.48
2023-01-25T02:20:58.448Z,15.32
2023-01-25T02:23:24.665Z,16.60
2023-01-25T02:25:51.088Z,16.10
2023-01-25T02:28:28.523Z,16.02
2023-01-25T02:30:54.720Z,16.38
2023-01-25T02:33:22.988Z,16.20
2023-01-25T02:35:51.299Z,15.98
2023-01-25T02:38:18.604Z,15.68
2023-01-25T02:40:50.877Z,16.70
2023-01-25T02:43:17.452Z,16.70
2023-01-25T02:45:45.971Z,16.13
2023-01-25T02:48:12.352Z,17.70
2023-01-25T02:50:38.549Z,17.15
2023-01-25T02:53:04.757Z,16.48
2023-01-25T02:55:30.957Z,17.27
2023-01-25T02:57:57.174Z,17.88
2023-01-25T03:00:23.368Z,17.08
2023-01-25T03:02:49.743Z,16.88
2023-01-25T03:05:15.998Z,16.70
2023-01-25T03:07:42.288Z,17.33
2023-01-25T03:10:08.995Z,16.90
2023-01-25T03:12:35.200Z,16.75
2023-01-25T03:15:01.467Z,15.98
2023-01-25T03:17:27.695Z,17.50
2023-01-25T03:19:54.039Z,17.95
2023-01-25T03:22:20.273Z,16.23
2023-01-25T03:24:46.475Z,17.33
2023-01-25T03:27:14.224Z,17.00
2023-01-25T03:29:41.467Z,17.17
2023-01-25T03:32:07.873Z,17.00
2023-01-25T03:34:34.288Z,17.75
2023-01-25T03:37:00.476Z,16.60
2023-01-25T03:39:26.726Z,16.73
2023-01-25T03:41:52.945Z,17.85
2023-01-25T03:44:19.165Z,17.48
2023-01-25T03:46:45.386Z,18.58
2023-01-25T03:49:12.080Z,17.67
2023-01-25T03:51:38.408Z,16.80
2023-01-25T03:54:04.777Z,17.90
2023-01-25T03:56:31.067Z,16.77
2023-01-25T03:58:57.268Z,16.67
2023-01-25T04:01:23.481Z,18.08
2023-01-25T04:03:49.843Z,17.05
2023-01-25T04:06:16.078Z,18.23
2023-01-25T04:08:42.277Z,19.05
2023-01-25T04:11:09.248Z,20.10
2023-01-25T04:13:36.555Z,18.13
2023-01-25T04:16:03.458Z,18.58
2023-01-25T04:18:29.812Z,18.00
2023-01-25T04:20:56.933Z,18.52
2023-01-25T04:23:23.857Z,18.38
2023-01-25T04:25:57.196Z,18.45
2023-01-25T04:28:23.930Z,17.48
2023-01-25T04:30:50.159Z,17.38
2023-01-25T04:33:16.525Z,17.95
2023-01-25T04:35:44.679Z,18.00
2023-01-25T04:38:11.285Z,18.70
2023-01-25T04:40:37.636Z,17.50
2023-01-25T04:43:03.974Z,17.48
2023-01-25T04:45:30.290Z,16.70
2023-01-25T04:47:58.035Z,18.02
2023-01-25T04:50:24.471Z,18.45
2023-01-25T04:52:50.709Z,17.77
2023-01-25T04:55:16.956Z,16.90
2023-01-25T04:57:43.460Z,17.98
2023-01-25T05:00:10.361Z,19.27
2023-01-25T05:02:36.747Z,19.38
2023-01-25T05:05:03.464Z,20.50
2023-01-25T05:07:29.742Z,19.05
2023-01-25T05:09:55.994Z,20.25
2023-01-25T05:12:22.228Z,20.38
2023-01-25T05:14:48.424Z,19.45
2023-01-25T05:17:14.675Z,19.08
2023-01-25T05:19:40.894Z,18.45
2023-01-25T05:22:07.401Z,20.05
2023-01-25T05:24:34.540Z,20.33
2023-01-25T05:27:03.406Z,19.23
2023-01-25T05:29:36.535Z,21.15
2023-01-25T05:32:06.843Z,18.77
2023-01-25T05:34:33.527Z,18.88
2023-01-25T05:37:00.112Z,19.83
2023-01-25T05:39:26.370Z,19.90
2023-01-25T05:41:52.610Z,18.13
2023-01-25T05:44:18.948Z,19.30
2023-01-25T05:46:45.188Z,18.83
2023-01-25T05:49:11.514Z,18.95
2023-01-25T05:51:38.366Z,19.75
2023-01-25T05:54:09.300Z,20.60
2023-01-25T05:56:35.746Z,20.92
2023-01-25T05:59:02.174Z,20.27
2023-01-25T06:01:28.764Z,21.20
2023-01-25T06:03:55.235Z,21.02
2023-01-25T06:06:21.742Z,20.23
2023-01-25T06:08:48.460Z,21.15
2023-01-25T06:11:15.981Z,21.13
2023-01-25T06:13:42.369Z,21.38
2023-01-25T06:16:08.967Z,21.02
2023-01-25T06:18:36.036Z,21.10
2023-01-25T06:21:03.073Z,20.98
2023-01-25T06:23:29.638Z,21.15
2023-01-25T06:25:59.495Z,21.23
2023-01-25T06:28:25.705Z,21.25
2023-01-25T06:30:52.153Z,21.27
2023-01-25T06:33:18.483Z,20.63
2023-01-25T06:35:44.717Z,20.90
2023-01-25T06:38:10.951Z,18.75
2023-01-25T06:40:37.155Z,21.33
2023-01-25T06:43:10.121Z,19.45
2023-01-25T06:45:36.422Z,20.83
2023-01-25T06:48:02.664Z,20.48
2023-01-25T06:50:28.960Z,18.00
2023-01-25T06:52:55.517Z,17.90
2023-01-25T06:55:22.197Z,20.75
2023-01-25T06:57:48.486Z,19.08
2023-01-25T07:00:15.482Z,19.63
2023-01-25T07:02:41.724Z,20.92
2023-01-25T07:05:08.485Z,19.90
2023-01-25T07:07:34.880Z,19.45
2023-01-25T07:10:01.912Z,19.55
2023-01-25T07:12:29.026Z,18.42
2023-01-25T07:14:55.386Z,20.20
2023-01-25T07:17:21.617Z,18.70
2023-01-25T07:19:47.925Z,20.05
2023-01-25T07:22:14.196Z,19.60
2023-01-25T07:24:40.399Z,19.02
2023-01-25T07:27:06.636Z,19.80
2023-01-25T07:29:32.856Z,19.15
2023-01-25T07:31:59.158Z,21.33
2023-01-25T07:34:25.703Z,20.63
2023-01-25T07:36:51.892Z,19.67
2023-01-25T07:39:18.159Z,21.00
2023-01-25T07:41:44.360Z,21.45
2023-01-25T07:44:10.593Z,20.80
2023-01-25T07:46:36.789Z,19.98
2023-01-25T07:49:03.021Z,20.23
2023-01-25T07:51:30.919Z,19.63
2023-01-25T07:53:58.242Z,21.33
2023-01-25T07:56:25.888Z,21.23
2023-01-25T07:58:52.561Z,20.20
2023-01-25T08:01:19.560Z,20.30
2023-01-25T08:03:46.868Z,21.92
2023-01-25T08:06:13.294Z,21.65
2023-01-25T08:08:46.786Z,21.65
2023-01-25T08:11:15.185Z,21.60
2023-01-25T08:13:50.861Z,20.48
2023-01-25T08:16:17.751Z,22.63
2023-01-25T08:18:47.086Z,22.33
2023-01-25T08:21:13.293Z,21.05
2023-01-25T08:23:39.624Z,20.60
2023-01-25T08:26:06.773Z,21.27
2023-01-25T08:28:33.015Z,20.67
2023-01-25T08:31:10.306Z,22.35
2023-01-25T08:33:36.785Z,24.27
2023-01-25T08:36:03.393Z,20.77
2023-01-25T08:38:29.693Z,21.83
2023-01-25T08:40:55.945Z,22.33
2023-01-25T08:43:22.180Z,22.85
2023-01-25T08:45:55.765Z,22.95
2023-01-25T08:48:21.991Z,23.58
2023-01-25T08:50:48.246Z,23.13
2023-01-25T08:53:14.727Z,20.52
2023-01-25T08:55:42.921Z,21.02
2023-01-25T08:58:16.749Z,23.92
2023-01-25T09:00:43.283Z,23.88
2023-01-25T09:03:10.497Z,23.40
2023-01-25T09:05:37.184Z,23.70
2023-01-25T09:08:05.854Z,23.83
2023-01-25T09:10:32.610Z,23.10
2023-01-25T09:12:58.792Z,24.20
2023-01-25T09:15:25.196Z,24.30
2023-01-25T09:17:52.110Z,24.92
2023-01-25T09:20:18.477Z,24.42
2023-01-25T09:22:44.678Z,25.20
2023-01-25T09:25:11.426Z,24.80
2023-01-25T09:27:38.135Z,25.27
2023-01-25T09:30:08.659Z,25.38
2023-01-25T09:32:37.247Z,26.15
2023-01-25T09:35:04.378Z,24.67
2023-01-25T09:37:30.690Z,25.67
2023-01-25T09:39:56.912Z,25.05
2023-01-25T09:42:35.724Z,26.45
2023-01-25T09:45:12.950Z,26.55
2023-01-25T09:47:42.169Z,26.90
2023-01-25T09:50:27.081Z,26.90
2023-01-25T09:52:53.971Z,25.35
2023-01-25T09:55:22.588Z,25.80
2023-01-25T09:57:50.884Z,27.67
2023-01-25T10:00:20.481Z,27.02
2023-01-25T10:02:52.822Z,25.40
2023-01-25T10:05:21.309Z,27.10
2023-01-25T10:07:53.379Z,25.63
2023-01-25T10:10:26.748Z,26.50
2023-01-25T10:12:52.938Z,28.40
2023-01-25T10:15:20.362Z,27.92
2023-01-25T10:17:49.108Z,26.75
2023-01-25T10:20:20.368Z,28.92
2023-01-25T10:23:09.866Z,26.05
2023-01-25T10:25:40.509Z,28.27
2023-01-25T10:28:24.399Z,26.17
2023-01-25T10:30:55.149Z,26.88
2023-01-25T10:33:21.476Z,26.73
2023-01-25T10:35:49.610Z,27.73
2023-01-25T10:38:27.073Z,26.95
2023-01-25T10:40:56.782Z,26.90
2023-01-25T10:43:23.318Z,26.40
2023-01-25T10:45:50.292Z,27.42
2023-01-25T10:48:18.530Z,27.73
2023-01-25T10:50:46.453Z,26.52
2023-01-25T10:53:29.912Z,27.38
2023-01-25T10:56:05.990Z,27.58
2023-01-25T10:58:33.392Z,28.35
2023-01-25T11:00:59.603Z,29.00
2023-01-25T11:03:33.178Z,28.73
2023-01-25T11:05:59.456Z,29.52
2023-01-25T11:08:31.460Z,29.75
2023-01-25T11:10:58.589Z,26.98
2023-01-25T11:13:26.447Z,26.83
2023-01-25T11:15:54.437Z,27.25
2023-01-25T11:18:20.754Z,28.27
2023-01-25T11:20:47.297Z,29.70
2023-01-25T11:23:24.745Z,28.92
2023-01-25T11:25:51.194Z,28.45
2023-01-25T11:28:19.493Z,27.10
2023-01-25T11:30:46.410Z,27.42
2023-01-25T11:33:13.792Z,27.92
2023-01-25T11:35:48.441Z,27.15
2023-01-25T11:38:17.913Z,26.08
2023-01-25T11:40:47.203Z,26.38
2023-01-25T11:43:13.374Z,27.00
2023-01-25T11:46:12.154Z,26.92
2023-01-25T11:48:43.397Z,27.48
2023-01-25T11:51:21.324Z,26.58
2023-01-25T11:53:47.571Z,27.60
2023-01-25T11:56:22.760Z,27.98
2023-01-25T11:58:58.730Z,28.20
2023-01-25T12:01:38.047Z,28.92
2023-01-25T12:04:24.533Z,28.73
2023-01-25T12:06:53.592Z,29.38
2023-01-25T12:09:32.257Z,28.90
2023-01-25T12:12:37.105Z,28.35
2023-01-25T12:15:03.286Z,27.38
2023-01-25T12:17:49.973Z,28.73
2023-01-25T12:20:18.971Z,27.27
2023-01-25T12:22:45.133Z,26.55
2023-01-25T12:25:21.430Z,25.42
2023-01-25T12:28:05.862Z,25.95
2023-01-25T12:30:53.523Z,27.80
2023-01-25T12:33:25.618Z,27.75
2023-01-25T12:36:00.142Z,27.80
2023-01-25T12:38:46.654Z,29.00
2023-01-25T12:41:20.209Z,30.27
2023-01-25T12:43:48.816Z,31.30
2023-01-25T12:46:23.957Z,29.92
2023-01-25T12:48:52.297Z,29.75
2023-01-25T12:51:20.209Z,30.10
2023-01-25T12:53:49.484Z,28.50
2023-01-25T12:56:25.131Z,28.50
2023-01-25T12:58:55.257Z,28.35
2023-01-25T13:01:28.593Z,27.67
2023-01-25T13:04:13.784Z,29.15
2023-01-25T13:06:45.663Z,29.38
2023-01-25T13:09:34.432Z,29.95
2023-01-25T13:12:03.088Z,30.65
2023-01-25T13:14:30.598Z,28.52
2023-01-25T13:17:11.111Z,28.23
2023-01-25T13:19:37.523Z,28.83
2023-01-25T13:22:04.824Z,31.33
2023-01-25T13:24:33.171Z,27.92
2023-01-25T13:27:00.847Z,27.95
2023-01-25T13:29:33.210Z,26.98
2023-01-25T13:32:00.138Z,28.33
2023-01-25T13:34:39.116Z,29.55
2023-01-25T13:37:14.281Z,28.45
2023-01-25T13:39:41.868Z,30.85
2023-01-25T13:42:10.916Z,28.67
2023-01-25T13:44:39.410Z,30.48
2023-01-25T13:47:07.618Z,30.80
2023-01-25T13:49:41.222Z,31.38
2023-01-25T13:52:07.532Z,31.95
2023-01-25T13:54:41.998Z,30.98
2023-01-25T13:57:15.322Z,30.50
2023-01-25T13:59:41.580Z,29.05
2023-01-25T14:02:17.313Z,30.80
2023-01-25T14:04:45.271Z,29.27
2023-01-25T14:07:15.564Z,29.55
2023-01-25T14:09:43.036Z,28.83
2023-01-25T14:12:10.991Z,30.73
2023-01-25T14:14:37.822Z,29.08
2023-01-25T14:17:14.917Z,32.33
2023-01-25T14:19:44.409Z,30.20
2023-01-25T14:22:19.905Z,31.67
2023-01-25T14:24:59.037Z,34.72
2023-01-25T14:27:25.251Z,33.83
2023-01-25T14:29:51.475Z,31.85
2023-01-25T14:32:20.619Z,33.03
2023-01-25T14:34:46.940Z,34.88
2023-01-25T14:37:13.656Z,32.40
2023-01-25T14:39:40.174Z,33.05
2023-01-25T14:42:06.430Z,32.42
2023-01-25T14:44:33.318Z,33.95
2023-01-25T14:47:18.296Z,32.75
2023-01-25T14:49:44.605Z,32.03
2023-01-25T14:52:15.535Z,34.88
2023-01-25T14:54:47.818Z,34.08
2023-01-25T14:57:34.317Z,34.75
2023-01-25T15:00:01.402Z,33.88
2023-01-25T15:02:33.617Z,34.65
2023-01-25T15:05:11.132Z,34.25
2023-01-25T15:07:43.104Z,36.08
2023-01-25T15:10:28.258Z,37.08
2023-01-25T15:12:58.507Z,35.92
2023-01-25T15:15:32.094Z,34.65
2023-01-25T15:17:58.580Z,35.45
2023-01-25T15:20:29.164Z,35.33
2023-01-25T15:22:56.345Z,36.45
2023-01-25T15:25:24.226Z,36.63
2023-01-25T15:27:50.998Z,34.20
2023-01-25T15:30:17.974Z,35.45
2023-01-25T15:32:45.122Z,36.25
2023-01-25T15:35:19.347Z,35.38
2023-01-25T15:37:49.028Z,34.83
2023-01-25T15:40:15.794Z,36.45
2023-01-25T15:42:42.130Z,38.80
2023-01-25T15:45:12.581Z,37.20
2023-01-25T15:47:39.195Z,36.07
2023-01-25T15:50:06.142Z,35.42
2023-01-25T15:52:32.380Z,36.15
2023-01-25T15:55:01.688Z,34.85
2023-01-25T15:57:29.843Z,37.58
2023-01-25T15:59:56.548Z,38.40
2023-01-25T16:02:23.318Z,35.13
2023-01-25T16:04:49.644Z,34.78
2023-01-25T16:07:36.258Z,35.15
2023-01-25T16:10:02.685Z,36.28
2023-01-25T16:12:29.070Z,33.85
2023-01-25T16:14:55.274Z,35.13
2023-01-25T16:17:24.508Z,34.50
2023-01-25T16:19:50.744Z,36.38
2023-01-25T16:22:17.904Z,36.63
2023-01-25T16:24:44.819Z,36.95
2023-01-25T16:27:15.400Z,36.45
2023-01-25T16:29:41.641Z,33.08
2023-01-25T16:32:07.886Z,36.20
2023-01-25T16:34:34.116Z,35.42
2023-01-25T16:37:01.625Z,36.75
2023-01-25T16:39:28.212Z,36.45
2023-01-25T16:41:55.081Z,37.55
2023-01-25T16:44:21.307Z,34.85
2023-01-25T16:46:49.912Z,34.38
2023-01-25T16:49:17.181Z,36.85
2023-01-25T16:51:45.300Z,38.78
2023-01-25T16:54:12.114Z,36.60
2023-01-25T16:56:38.569Z,38.95
2023-01-25T16:59:05.387Z,37.60
2023-01-25T17:01:32.095Z,38.35
2023-01-25T17:03:58.666Z,37.17
2023-01-25T17:06:26.119Z,36.20
2023-01-25T17:08:54.615Z,36.97
2023-01-25T17:11:22.026Z,35.47
2023-01-25T17:13:49.677Z,35.42
2023-01-25T17:16:16.403Z,34.92
2023-01-25T17:18:42.613Z,36.30
2023-01-25T17:21:10.709Z,35.55
2023-01-25T17:23:37.489Z,35.55
2023-01-25T17:26:05.257Z,34.70
2023-01-25T17:28:31.795Z,33.83
2023-01-25T17:30:58.053Z,34.42
2023-01-25T17:33:24.480Z,33.65
2023-01-25T17:35:51.469Z,34.58
2023-01-25T17:38:18.974Z,33.20
2023-01-25T17:40:45.182Z,32.00
2023-01-25T17:43:11.497Z,32.97
2023-01-25T17:45:40.565Z,32.65
2023-01-25T17:48:08.770Z,34.00
2023-01-25T17:50:36.159Z,32.65
2023-01-25T17:53:03.299Z,32.92
2023-01-25T17:55:29.745Z,34.42
2023-01-25T17:57:56.566Z,34.53
2023-01-25T18:00:23.110Z,32.58
2023-01-25T18:02:49.358Z,33.35
2023-01-25T18:05:15.851Z,33.92
2023-01-25T18:07:42.442Z,34.47
2023-01-25T18:10:09.169Z,34.33
2023-01-25T18:12:35.618Z,32.75
2023-01-25T18:15:01.847Z,32.72
2023-01-25T18:17:28.068Z,32.13
2023-01-25T18:19:54.302Z,33.90
2023-01-25T18:22:20.566Z,31.65
2023-01-25T18:24:46.966Z,30.83
2023-01-25T18:27:21.121Z,31.05
2023-01-25T18:29:52.167Z,33.17
2023-01-25T18:32:18.392Z,33.05
2023-01-25T18:34:44.711Z,29.33
2023-01-25T18:37:20.915Z,27.45
2023-01-25T18:39:48.309Z,28.42
2023-01-25T18:42:14.654Z,28.27
2023-01-25T18:44:40.863Z,27.70
2023-01-25T18:47:07.147Z,27.48
2023-01-25T18:49:33.486Z,27.05
2023-01-25T18:52:10.785Z,25.75
2023-01-25T18:54:37.357Z,26.13
2023-01-25T18:57:03.734Z,25.23
2023-01-25T18:59:29.936Z,24.83
2023-01-25T19:01:56.228Z,24.42
2023-01-25T19:04:22.469Z,24.48
2023-01-25T19:06:50.836Z,24.23
2023-01-25T19:09:17.040Z,24.52
2023-01-25T19:11:43.333Z,24.15
2023-01-25T19:14:10.022Z,24.20
2023-01-25T19:16:36.425Z,24.98
2023-01-25T19:19:02.732Z,22.90
2023-01-25T19:21:29.142Z,22.00
2023-01-25T19:23:55.651Z,24.27
2023-01-25T19:26:23.607Z,23.15
2023-01-25T19:28:49.898Z,24.00
2023-01-25T19:31:17.777Z,23.70
2023-01-25T19:33:44.648Z,23.13
2023-01-25T19:36:15.337Z,21.55
2023-01-25T19:38:41.900Z,21.10
2023-01-25T19:41:10.285Z,22.80
2023-01-25T19:43:36.884Z,21.95
2023-01-25T19:46:10.457Z,22.00
2023-01-25T19:48:37.131Z,21.70
2023-01-25T19:51:10.769Z,20.33
2023-01-25T19:53:37.086Z,20.60
2023-01-25T19:56:06.989Z,21.02
2023-01-25T19:58:33.402Z,20.35
2023-01-25T20:01:06.308Z,19.92
2023-01-25T20:03:32.560Z,19.98
2023-01-25T20:05:59.251Z,19.15
2023-01-25T20:08:28.057Z,19.92
2023-01-25T20:10:58.978Z,18.33
2023-01-25T20:13:25.243Z,19.48
2023-01-25T20:15:51.472Z,18.08
2023-01-25T20:18:17.868Z,19.13
2023-01-25T20:20:44.212Z,19.63
2023-01-25T20:23:10.401Z,19.88
2023-01-25T20:25:36.599Z,18.80
2023-01-25T20:28:02.790Z,19.67
2023-01-25T20:30:30.516Z,20.80
2023-01-25T20:32:56.750Z,20.13
2023-01-25T20:35:22.972Z,19.58
2023-01-25T20:37:50.279Z,19.38
2023-01-25T20:40:16.611Z,20.60
2023-01-25T20:42:42.917Z,20.92
2023-01-25T20:45:11.324Z,19.50
2023-01-25T20:47:37.709Z,18.38
2023-01-25T20:50:04.073Z,18.98
2023-01-25T20:52:30.281Z,18.98
2023-01-25T20:54:56.925Z,19.98
2023-01-25T20:57:23.193Z,18.80
2023-01-25T20:59:49.409Z,19.13
2023-01-25T21:02:15.689Z,16.52
2023-01-25T21:04:41.910Z,17.85
2023-01-25T21:07:08.476Z,18.67
2023-01-25T21:09:34.664Z,17.60
2023-01-25T21:12:00.863Z,19.67
2023-01-25T21:14:27.071Z,17.85
2023-01-25T21:16:53.275Z,17.75
2023-01-25T21:19:19.459Z,19.00
2023-01-25T21:21:45.721Z,20.75
2023-01-25T21:24:12.083Z,20.95
2023-01-25T21:26:38.466Z,20.40
2023-01-25T21:29:05.483Z,22.02
2023-01-25T21:31:33.103Z,21.67
2023-01-25T21:33:59.681Z,21.92
2023-01-25T21:36:26.094Z,23.38
2023-01-25T21:38:53.553Z,23.73
2023-01-25T21:41:26.734Z,24.10
2023-01-25T21:44:12.158Z,23.40
2023-01-25T21:46:38.403Z,25.65
2023-01-25T21:49:24.431Z,24.80
2023-01-25T21:51:51.778Z,25.27
2023-01-25T21:54:22.113Z,26.90
2023-01-25T21:56:49.263Z,25.43
2023-01-25T21:59:15.783Z,27.25
2023-01-25T22:01:45.040Z,28.58
2023-01-25T22:04:11.828Z,28.27
2023-01-25T22:06:38.205Z,29.98
2023-01-25T22:09:04.880Z,26.45
2023-01-25T22:11:31.234Z,27.77
2023-01-25T22:13:57.518Z,25.60
2023-01-25T22:16:23.931Z,26.67
2023-01-25T22:18:50.814Z,24.80
2023-01-25T22:21:21.326Z,28.05
2023-01-25T22:23:47.694Z,26.33
2023-01-25T22:26:15.395Z,27.77
2023-01-25T22:28:47.508Z,27.58
2023-01-25T22:31:31.815Z,26.23
2023-01-25T22:33:58.969Z,28.02
2023-01-25T22:36:26.641Z,27.27
2023-01-25T22:38:52.884Z,28.27
2023-01-25T22:41:20.361Z,28.48
2023-01-25T22:43:46.860Z,28.63
2023-01-25T22:46:18.110Z,28.65
2023-01-25T22:51:12.224Z,27.35
2023-01-25T22:53:38.471Z,27.77
2023-01-25T22:56:04.803Z,27.60
2023-01-25T22:58:31.291Z,28.77
2023-01-25T23:00:57.512Z,30.33
2023-01-25T23:03:23.709Z,29.08
2023-01-25T23:05:49.978Z,30.58
2023-01-25T23:08:16.251Z,30.30
2023-01-25T23:10:42.449Z,31.45
2023-01-25T23:13:08.673Z,31.23
2023-01-25T23:15:34.920Z,34.03
2023-01-25T23:18:19.972Z,30.85
2023-01-25T23:20:46.171Z,30.67
2023-01-25T23:23:12.466Z,30.67
2023-01-25T23:25:39.317Z,30.67
2023-01-25T23:28:05.505Z,30.83
2023-01-25T23:30:31.862Z,31.15
2023-01-25T23:32:58.113Z,33.35
2023-01-25T23:35:24.399Z,32.80
2023-01-25T23:37:50.617Z,30.67
2023-01-25T23:40:16.972Z,31.15
2023-01-25T23:42:43.263Z,31.42
2023-01-25T23:45:10.733Z,32.20
2023-01-25T23:47:37.265Z,30.98
2023-01-25T23:50:04.156Z,32.78
2023-01-25T23:52:31.545Z,33.80
2023-01-25T23:54:57.827Z,32.25
2023-01-25T23:57:24.054Z,31.63
2023-01-25T23:59:50.245Z,32.88
